createdAt,value
2022-10-02T00:00:21.823Z,8.05
2022-10-02T00:03:40.449Z,8.04
2022-10-02T00:06:53.312Z,8.09
2022-10-02T00:10:16.691Z,8.08
2022-10-02T00:13:29.702Z,7.96
2022-10-02T00:16:43.520Z,8.08
2022-10-02T00:19:49.763Z,8.17
2022-10-02T00:23:05.014Z,8.16
2022-10-02T00:26:26.568Z,8.25
2022-10-02T00:29:52.805Z,8.36
2022-10-02T00:33:22.779Z,8.37
2022-10-02T00:36:47.890Z,8.43
2022-10-02T00:40:32.034Z,8.48
2022-10-02T00:44:00.474Z,8.52
2022-10-02T00:47:23.084Z,8.53
2022-10-02T00:50:49.730Z,8.49
2022-10-02T00:54:18.840Z,8.47
2022-10-02T00:57:52.089Z,8.43
2022-10-02T01:01:13.790Z,8.43
2022-10-02T01:04:40.964Z,8.47
2022-10-02T01:07:57.834Z,8.39
2022-10-02T01:11:08.261Z,8.53
2022-10-02T01:14:15.493Z,8.48
2022-10-02T01:17:37.166Z,8.46
2022-10-02T01:20:58.080Z,8.46
2022-10-02T01:24:17.974Z,8.56
2022-10-02T01:27:30.084Z,8.51
2022-10-02T01:30:48.694Z,8.47
2022-10-02T01:33:55.820Z,8.50
2022-10-02T01:37:03.368Z,8.49
2022-10-02T01:40:16.098Z,8.60
2022-10-02T01:43:35.122Z,8.63
2022-10-02T01:46:56.932Z,8.57
2022-10-02T01:50:21.023Z,8.40
2022-10-02T01:53:40.908Z,8.57
2022-10-02T01:57:05.458Z,8.58
2022-10-02T02:00:21.030Z,8.46
2022-10-02T02:03:43.800Z,8.51
2022-10-02T02:07:07.219Z,8.62
2022-10-02T02:10:25.056Z,8.69
2022-10-02T02:13:43.212Z,8.76
2022-10-02T02:16:59.861Z,8.81
2022-10-02T02:20:16.781Z,8.76
2022-10-02T02:23:31.601Z,8.78
2022-10-02T02:26:43.972Z,8.82
2022-10-02T02:29:59.956Z,8.69
2022-10-02T02:33:18.585Z,8.72
2022-10-02T02:36:38.196Z,8.65
2022-10-02T02:39:54.401Z,8.59
2022-10-02T02:43:13.101Z,8.71
2022-10-02T02:46:30.644Z,8.73
2022-10-02T02:49:53.350Z,8.84
2022-10-02T02:53:10.047Z,8.81
2022-10-02T02:56:22.720Z,8.83
2022-10-02T02:59:35.446Z,8.88
2022-10-02T03:02:41.763Z,8.98
2022-10-02T03:05:58.270Z,8.97
2022-10-02T03:09:07.196Z,8.98
2022-10-02T03:12:33.636Z,9.05
2022-10-02T03:16:01.596Z,9.11
2022-10-02T03:19:33.690Z,9.17
2022-10-02T03:22:57.104Z,9.16
2022-10-02T03:26:15.798Z,9.24
2022-10-02T03:29:31.224Z,9.26
2022-10-02T03:32:42.121Z,9.32
2022-10-02T03:35:50.902Z,9.31
2022-10-02T03:39:25.265Z,9.28
2022-10-02T03:42:38.460Z,9.27
2022-10-02T03:45:51.275Z,9.32
2022-10-02T03:48:58.163Z,9.30
2022-10-02T03:52:04.995Z,9.31
2022-10-02T03:55:33.740Z,9.29
2022-10-02T03:58:49.124Z,9.38
2022-10-02T04:02:01.396Z,9.38
2022-10-02T04:05:27.213Z,9.51
2022-10-02T04:08:42.590Z,9.40
2022-10-02T04:12:01.762Z,9.43
2022-10-02T04:15:24.434Z,9.44
2022-10-02T04:18:40.924Z,9.33
2022-10-02T04:21:56.880Z,9.38
2022-10-02T04:25:15.670Z,9.36
2022-10-02T04:28:34.855Z,9.30
2022-10-02T04:31:40.948Z,9.45
2022-10-02T04:34:47.703Z,9.40
2022-10-02T04:38:36.015Z,9.41
2022-10-02T04:42:15.742Z,9.47
2022-10-02T04:45:52.301Z,9.40
2022-10-02T04:49:23.723Z,9.40
2022-10-02T04:53:00.004Z,9.44
2022-10-02T04:56:36.634Z,9.36
2022-10-02T05:00:07.016Z,9.46
2022-10-02T05:03:48.916Z,9.53
2022-10-02T05:07:24.274Z,9.65
2022-10-02T05:10:55.785Z,9.62
2022-10-02T05:14:38.048Z,9.49
2022-10-02T05:18:18.145Z,9.60
2022-10-02T05:22:15.323Z,9.53
2022-10-02T05:25:55.276Z,9.62
2022-10-02T05:29:27.346Z,9.63
2022-10-02T05:33:33.582Z,9.74
2022-10-02T05:37:08.349Z,9.71
2022-10-02T05:40:27.791Z,10.29
2022-10-02T05:43:49.813Z,10.32
2022-10-02T05:47:14.928Z,10.19
2022-10-02T05:50:32.656Z,10.13
2022-10-02T05:53:50.570Z,10.12
2022-10-02T05:57:09.725Z,10.11
2022-10-02T06:00:32.797Z,10.19
2022-10-02T06:03:49.957Z,10.16
2022-10-02T06:07:07.082Z,10.18
2022-10-02T06:10:36.813Z,10.14
2022-10-02T06:13:53.615Z,10.24
2022-10-02T06:17:26.869Z,10.18
2022-10-02T06:20:52.874Z,10.29
2022-10-02T06:24:08.779Z,10.49
2022-10-02T06:27:32.988Z,10.60
2022-10-02T06:30:48.983Z,10.59
2022-10-02T06:33:57.287Z,10.64
2022-10-02T06:37:31.190Z,10.55
2022-10-02T06:41:03.833Z,10.48
2022-10-02T06:44:30.921Z,10.50
2022-10-02T06:48:05.687Z,10.58
2022-10-02T06:51:43.654Z,10.79
2022-10-02T06:55:17.411Z,10.73
2022-10-02T06:59:02.132Z,10.59
2022-10-02T07:02:44.023Z,10.76
2022-10-02T07:06:29.029Z,10.76
2022-10-02T07:10:29.722Z,10.60
2022-10-02T07:14:07.625Z,10.79
2022-10-02T07:17:51.006Z,11.17
2022-10-02T07:21:14.662Z,11.38
2022-10-02T07:25:07.992Z,11.51
2022-10-02T07:28:30.792Z,11.46
2022-10-02T07:32:00.756Z,11.82
2022-10-02T07:35:46.291Z,12.14
2022-10-02T07:39:14.551Z,12.48
2022-10-02T07:42:59.884Z,12.92
2022-10-02T07:46:19.953Z,12.75
2022-10-02T07:49:53.841Z,12.56
2022-10-02T07:53:18.987Z,12.57
2022-10-02T07:56:26.947Z,12.45
2022-10-02T07:59:37.156Z,12.27
2022-10-02T08:02:53.798Z,12.32
2022-10-02T08:06:01.932Z,12.51
2022-10-02T08:09:25.187Z,12.64
2022-10-02T08:12:41.092Z,12.57
2022-10-02T08:15:59.348Z,12.45
2022-10-02T08:19:12.046Z,13.10
2022-10-02T08:22:37.065Z,14.28
2022-10-02T08:25:59.672Z,15.15
2022-10-02T08:29:18.302Z,16.38
2022-10-02T08:32:25.635Z,15.87
2022-10-02T08:35:51.154Z,15.98
2022-10-02T08:39:34.101Z,15.56
2022-10-02T08:43:39.325Z,15.32
2022-10-02T08:47:33.455Z,15.02
2022-10-02T08:51:37.885Z,14.78
2022-10-02T08:55:35.936Z,15.32
2022-10-02T08:59:21.354Z,15.31
2022-10-02T09:03:25.333Z,15.18
2022-10-02T09:07:29.522Z,16.92
2022-10-02T09:11:24.051Z,17.64
2022-10-02T09:15:03.303Z,16.92
2022-10-02T09:18:45.955Z,16.64
2022-10-02T09:22:01.891Z,15.52
2022-10-02T09:25:39.094Z,15.83
2022-10-02T09:29:38.369Z,16.58
2022-10-02T09:33:39.584Z,16.51
2022-10-02T09:37:45.932Z,17.56
2022-10-02T09:41:36.847Z,17.49
2022-10-02T09:45:36.806Z,17.77
2022-10-02T09:49:24.654Z,17.54
2022-10-02T09:53:32.467Z,17.19
2022-10-02T09:57:31.961Z,17.91
2022-10-02T10:01:18.674Z,17.33
2022-10-02T10:05:13.335Z,18.39
2022-10-02T10:09:01.719Z,18.91
2022-10-02T10:12:54.673Z,19.98
2022-10-02T10:16:49.164Z,18.89
2022-10-02T10:20:42.598Z,18.96
2022-10-02T10:24:32.113Z,18.50
2022-10-02T10:28:38.103Z,17.47
2022-10-02T10:32:24.748Z,16.85
2022-10-02T10:36:10.826Z,16.73
2022-10-02T10:40:11.138Z,16.60
2022-10-02T10:44:04.749Z,16.27
2022-10-02T10:48:00.685Z,15.97
2022-10-02T10:51:35.629Z,16.17
2022-10-02T10:55:18.424Z,16.14
2022-10-02T10:58:55.673Z,16.37
2022-10-02T11:02:53.645Z,16.45
2022-10-02T11:06:33.020Z,17.18
2022-10-02T11:10:25.921Z,17.70
2022-10-02T11:14:07.222Z,17.15
2022-10-02T11:18:07.757Z,17.10
2022-10-02T11:22:07.511Z,16.60
2022-10-02T11:25:48.302Z,16.98
2022-10-02T11:29:34.917Z,17.09
2022-10-02T11:33:33.289Z,17.36
2022-10-02T11:37:01.484Z,17.52
2022-10-02T11:40:37.555Z,17.41
2022-10-02T11:44:27.773Z,17.02
2022-10-02T11:48:16.227Z,17.61
2022-10-02T11:52:19.054Z,17.90
2022-10-02T11:55:53.618Z,17.29
2022-10-02T11:59:36.098Z,17.38
2022-10-02T12:03:00.111Z,17.36
2022-10-02T12:06:19.465Z,17.76
2022-10-02T12:09:54.892Z,18.70
2022-10-02T12:13:28.921Z,18.08
2022-10-02T12:17:05.008Z,17.90
2022-10-02T12:20:43.742Z,17.97
2022-10-02T12:24:10.416Z,17.80
2022-10-02T12:27:40.145Z,18.07
2022-10-02T12:31:03.199Z,18.15
2022-10-02T12:34:38.528Z,17.96
2022-10-02T12:37:58.084Z,18.10
2022-10-02T12:41:23.405Z,18.21
2022-10-02T12:45:11.387Z,18.70
2022-10-02T12:48:45.997Z,18.69
2022-10-02T12:52:44.608Z,19.18
2022-10-02T12:56:47.215Z,19.60
2022-10-02T13:00:09.065Z,19.40
2022-10-02T13:04:07.840Z,18.74
2022-10-02T13:08:16.304Z,18.82
2022-10-02T13:11:45.624Z,18.44
2022-10-02T13:15:26.429Z,18.18
2022-10-02T13:18:57.968Z,18.14
2022-10-02T13:22:20.056Z,17.41
2022-10-02T13:25:50.616Z,17.10
2022-10-02T13:29:35.529Z,16.46
2022-10-02T13:33:13.457Z,15.98
2022-10-02T13:36:37.894Z,15.29
2022-10-02T13:40:19.735Z,15.54
2022-10-02T13:44:01.632Z,15.08
2022-10-02T13:47:41.525Z,15.27
2022-10-02T13:51:02.284Z,15.69
2022-10-02T13:54:53.201Z,15.82
2022-10-02T13:58:40.666Z,15.53
2022-10-02T14:02:16.232Z,15.27
2022-10-02T14:05:42.538Z,15.22
2022-10-02T14:09:11.995Z,15.08
2022-10-02T14:12:47.014Z,15.02
2022-10-02T14:16:15.763Z,15.12
2022-10-02T14:20:13.657Z,15.12
2022-10-02T14:23:51.327Z,15.21
2022-10-02T14:27:19.493Z,15.26
2022-10-02T14:30:32.894Z,15.01
2022-10-02T14:34:17.918Z,15.11
2022-10-02T14:37:58.190Z,14.65
2022-10-02T14:41:28.699Z,14.64
2022-10-02T14:45:21.944Z,14.63
2022-10-02T14:49:03.338Z,14.63
2022-10-02T14:52:35.505Z,14.54
2022-10-02T14:56:16.007Z,14.50
2022-10-02T14:59:55.880Z,14.49
2022-10-02T15:03:36.655Z,14.38
2022-10-02T15:07:07.338Z,14.31
2022-10-02T15:10:24.885Z,14.27
2022-10-02T15:13:43.863Z,14.17
2022-10-02T15:17:13.777Z,14.11
2022-10-02T15:20:35.492Z,14.12
2022-10-02T15:23:54.175Z,14.06
2022-10-02T15:27:17.277Z,14.06
2022-10-02T15:30:48.643Z,13.93
2022-10-02T15:34:18.758Z,13.86
2022-10-02T15:37:38.573Z,13.74
2022-10-02T15:41:42.196Z,13.53
2022-10-02T15:45:24.833Z,13.06
2022-10-02T15:49:11.488Z,13.02
2022-10-02T15:52:49.787Z,12.67
2022-10-02T15:56:31.079Z,12.38
2022-10-02T16:00:05.942Z,12.12
2022-10-02T16:03:33.093Z,11.90
2022-10-02T16:07:36.998Z,11.75
2022-10-02T16:11:22.004Z,11.60
2022-10-02T16:14:54.155Z,11.60
2022-10-02T16:18:26.726Z,11.46
2022-10-02T16:22:17.755Z,11.26
2022-10-02T16:26:08.262Z,11.30
2022-10-02T16:29:42.366Z,11.39
2022-10-02T16:33:16.712Z,11.41
2022-10-02T16:36:50.420Z,11.38
2022-10-02T16:40:10.054Z,11.33
2022-10-02T16:43:53.091Z,11.33
2022-10-02T16:47:18.529Z,11.13
2022-10-02T16:50:38.030Z,11.03
2022-10-02T16:54:03.060Z,10.89
2022-10-02T16:57:29.936Z,10.89
2022-10-02T17:00:49.464Z,10.88
2022-10-02T17:04:29.506Z,10.84
2022-10-02T17:07:53.602Z,10.82
2022-10-02T17:11:27.323Z,10.77
2022-10-02T17:14:49.325Z,10.89
2022-10-02T17:18:18.076Z,10.85
2022-10-02T17:21:45.527Z,10.88
2022-10-02T17:25:10.776Z,10.97
2022-10-02T17:28:36.293Z,11.02
2022-10-02T17:31:56.268Z,11.07
2022-10-02T17:35:08.328Z,11.09
2022-10-02T17:39:06.406Z,10.95
2022-10-02T17:42:32.930Z,11.01
2022-10-02T17:46:08.436Z,10.86
2022-10-02T17:49:35.830Z,10.78
2022-10-02T17:53:27.397Z,10.78
2022-10-02T17:57:12.035Z,10.79
2022-10-02T18:00:26.485Z,10.73
2022-10-02T18:04:00.187Z,10.72
2022-10-02T18:07:39.982Z,10.76
2022-10-02T18:11:05.924Z,10.79
2022-10-02T18:14:39.252Z,10.76
2022-10-02T18:18:16.288Z,10.39
2022-10-02T18:21:42.862Z,9.41
2022-10-02T18:25:14.773Z,8.96
2022-10-02T18:28:46.643Z,8.73
2022-10-02T18:32:24.603Z,8.62
2022-10-02T18:36:03.964Z,8.50
2022-10-02T18:39:23.651Z,8.34
2022-10-02T18:42:57.261Z,8.23
2022-10-02T18:46:24.372Z,8.14
2022-10-02T18:49:58.029Z,8.25
2022-10-02T18:53:34.828Z,8.30
2022-10-02T18:57:08.480Z,8.31
2022-10-02T19:01:17.384Z,8.28
2022-10-02T19:05:24.308Z,8.32
2022-10-02T19:09:23.814Z,8.35
2022-10-02T19:12:34.711Z,8.32
2022-10-02T19:15:40.282Z,8.43
2022-10-02T19:18:46.408Z,8.40
2022-10-02T19:21:59.403Z,8.42
2022-10-02T19:25:20.606Z,8.35
2022-10-02T19:28:33.540Z,8.34
2022-10-02T19:31:41.865Z,8.32
2022-10-02T19:34:58.610Z,8.29
2022-10-02T19:38:28.119Z,8.40
2022-10-02T19:41:45.349Z,8.44
2022-10-02T19:44:59.646Z,8.51
2022-10-02T19:48:12.050Z,8.54
2022-10-02T19:51:23.173Z,8.54
2022-10-02T19:54:41.117Z,8.50
2022-10-02T19:57:51.797Z,8.43
2022-10-02T20:00:59.674Z,8.41
2022-10-02T20:04:22.596Z,8.25
2022-10-02T20:07:34.444Z,8.25
2022-10-02T20:10:57.604Z,8.14
2022-10-02T20:14:15.819Z,8.17
2022-10-02T20:17:19.625Z,8.20
2022-10-02T20:20:25.982Z,8.17
2022-10-02T20:23:38.986Z,8.12
2022-10-02T20:26:53.146Z,8.06
2022-10-02T20:30:08.409Z,7.99
2022-10-02T20:33:26.193Z,8.01
2022-10-02T20:36:39.305Z,7.95
2022-10-02T20:40:00.097Z,8.02
2022-10-02T20:43:21.909Z,8.11
2022-10-02T20:47:10.995Z,8.05
2022-10-02T20:50:45.474Z,8.08
2022-10-02T20:54:31.762Z,8.20
2022-10-02T20:58:20.183Z,8.21
2022-10-02T21:01:45.835Z,8.33
2022-10-02T21:05:39.241Z,8.32
2022-10-02T21:09:55.592Z,8.30
2022-10-02T21:13:52.080Z,8.30
2022-10-02T21:17:53.598Z,8.27
2022-10-02T21:21:50.424Z,8.22
2022-10-02T21:25:57.590Z,8.30
2022-10-02T21:29:54.922Z,8.24
2022-10-02T21:33:17.097Z,8.29
2022-10-02T21:36:35.806Z,8.33
2022-10-02T21:40:37.543Z,8.35
2022-10-02T21:44:26.152Z,8.34
2022-10-02T21:48:28.082Z,8.41
2022-10-02T21:52:36.403Z,8.23
2022-10-02T21:56:44.187Z,8.19
2022-10-02T22:00:23.413Z,8.21
2022-10-02T22:04:20.190Z,8.18
2022-10-02T22:07:44.396Z,8.11
2022-10-02T22:11:03.244Z,8.14
2022-10-02T22:14:23.769Z,8.17
2022-10-02T22:17:47.900Z,8.16
2022-10-02T22:21:19.036Z,8.10
2022-10-02T22:25:01.202Z,7.91
2022-10-02T22:28:32.520Z,8.02
2022-10-02T22:32:18.299Z,8.07
2022-10-02T22:36:40.527Z,8.01
2022-10-02T22:40:01.872Z,8.10
2022-10-02T22:43:30.015Z,8.01
2022-10-02T22:46:51.123Z,7.97
2022-10-02T22:50:06.410Z,7.91
2022-10-02T22:53:29.001Z,7.86
2022-10-02T22:56:45.717Z,7.82
2022-10-02T23:00:12.279Z,7.76
2022-10-02T23:03:32.556Z,7.78
2022-10-02T23:07:02.475Z,7.75
2022-10-02T23:10:30.806Z,7.67
2022-10-02T23:13:48.035Z,7.68
2022-10-02T23:17:13.532Z,7.68
2022-10-02T23:20:32.374Z,7.62
2022-10-02T23:23:58.449Z,7.54
2022-10-02T23:27:19.011Z,7.70
2022-10-02T23:30:27.325Z,7.70
2022-10-02T23:33:50.017Z,7.67
2022-10-02T23:37:07.209Z,7.59
2022-10-02T23:40:50.623Z,7.57
2022-10-02T23:44:19.992Z,7.51
2022-10-02T23:47:49.679Z,7.49
2022-10-02T23:51:24.349Z,7.48
2022-10-02T23:54:56.790Z,7.42
2022-10-02T23:58:27.711Z,7.43
